createdAt,value
2019-01-20T00:00:40.203Z,-2.31
2019-01-20T00:03:08.542Z,-2.30
2019-01-20T00:05:36.872Z,-2.38
2019-01-20T00:08:05.832Z,-2.31
2019-01-20T00:10:34.190Z,-2.38
2019-01-20T00:13:02.611Z,-2.40
2019-01-20T00:15:31.139Z,-2.44
2019-01-20T00:18:00.053Z,-2.59
2019-01-20T00:20:28.466Z,-2.65
2019-01-20T00:22:56.911Z,-2.60
2019-01-20T00:25:25.350Z,-2.59
2019-01-20T00:27:53.678Z,-2.58
2019-01-20T00:30:22.258Z,-2.57
2019-01-20T00:32:50.610Z,-2.62
2019-01-20T00:35:19.028Z,-2.62
2019-01-20T00:37:47.409Z,-2.69
2019-01-20T00:40:16.513Z,-2.72
2019-01-20T00:42:45.299Z,-2.74
2019-01-20T00:45:16.193Z,-2.84
2019-01-20T00:47:44.627Z,-2.63
2019-01-20T00:50:16.317Z,-2.68
2019-01-20T00:52:44.813Z,-2.65
2019-01-20T00:55:17.418Z,-2.66
2019-01-20T00:57:45.916Z,-2.69
2019-01-20T01:00:19.420Z,-2.71
2019-01-20T01:02:48.109Z,-2.78
2019-01-20T01:05:17.277Z,-2.77
2019-01-20T01:07:46.135Z,-2.74
2019-01-20T01:10:15.685Z,-2.73
2019-01-20T01:12:44.195Z,-2.77
2019-01-20T01:15:13.456Z,-2.75
2019-01-20T01:17:41.879Z,-2.68
2019-01-20T01:20:14.014Z,-2.71
2019-01-20T01:22:42.521Z,-2.79
2019-01-20T01:25:12.880Z,-2.75
2019-01-20T01:27:41.754Z,-2.91
2019-01-20T01:30:14.726Z,-2.84
2019-01-20T01:32:43.181Z,-2.93
2019-01-20T01:35:12.686Z,-2.90
2019-01-20T01:37:41.089Z,-3.01
2019-01-20T01:40:11.875Z,-2.92
2019-01-20T01:42:40.270Z,-2.75
2019-01-20T01:45:13.906Z,-2.78
2019-01-20T01:47:42.241Z,-2.71
2019-01-20T01:50:12.207Z,-2.70
2019-01-20T01:52:40.517Z,-2.75
2019-01-20T01:55:10.205Z,-2.91
2019-01-20T01:57:38.519Z,-2.95
2019-01-20T02:00:12.577Z,-2.97
2019-01-20T02:02:40.928Z,-3.02
2019-01-20T02:05:09.653Z,-2.96
2019-01-20T02:07:38.102Z,-2.89
2019-01-20T02:10:10.006Z,-2.91
2019-01-20T02:12:38.417Z,-2.85
2019-01-20T02:15:08.956Z,-2.96
2019-01-20T02:17:37.289Z,-2.84
2019-01-20T02:20:09.218Z,-2.82
2019-01-20T02:22:37.582Z,-2.86
2019-01-20T02:25:06.337Z,-2.89
2019-01-20T02:27:35.730Z,-2.94
2019-01-20T02:30:09.013Z,-3.07
2019-01-20T02:32:37.627Z,-3.07
2019-01-20T02:35:06.122Z,-3.09
2019-01-20T02:37:34.460Z,-2.93
2019-01-20T02:40:04.846Z,-2.79
2019-01-20T02:42:33.165Z,-2.85
2019-01-20T02:45:01.575Z,-2.69
2019-01-20T02:47:29.890Z,-2.74
2019-01-20T02:49:58.232Z,-2.73
2019-01-20T02:52:26.557Z,-2.97
2019-01-20T02:54:54.901Z,-3.00
2019-01-20T02:57:23.250Z,-2.92
2019-01-20T02:59:51.609Z,-3.03
2019-01-20T03:02:20.036Z,-3.07
2019-01-20T03:04:48.418Z,-2.99
2019-01-20T03:07:16.737Z,-2.94
2019-01-20T03:09:45.086Z,-2.97
2019-01-20T03:12:13.568Z,-3.02
2019-01-20T03:14:41.940Z,-2.96
2019-01-20T03:17:10.721Z,-2.89
2019-01-20T03:19:39.072Z,-2.84
2019-01-20T03:22:07.413Z,-2.93
2019-01-20T03:24:35.788Z,-3.00
2019-01-20T03:27:04.292Z,-2.85
2019-01-20T03:29:32.635Z,-2.86
2019-01-20T03:32:00.967Z,-2.85
2019-01-20T03:34:29.367Z,-2.92
2019-01-20T03:36:58.806Z,-3.09
2019-01-20T03:39:27.114Z,-3.17
2019-01-20T03:41:55.548Z,-3.05
2019-01-20T03:44:23.893Z,-3.22
2019-01-20T03:46:52.268Z,-3.17
2019-01-20T03:49:20.606Z,-3.20
2019-01-20T03:51:49.009Z,-3.21
2019-01-20T03:54:17.761Z,-3.20
2019-01-20T03:56:46.110Z,-3.15
2019-01-20T03:59:14.520Z,-3.17
2019-01-20T04:01:42.895Z,-3.21
2019-01-20T04:04:11.565Z,-3.04
2019-01-20T04:06:39.894Z,-3.16
2019-01-20T04:09:08.401Z,-3.09
2019-01-20T04:11:36.792Z,-3.11
2019-01-20T04:14:05.309Z,-3.12
2019-01-20T04:16:33.680Z,-3.21
2019-01-20T04:19:01.996Z,-3.37
2019-01-20T04:21:30.338Z,-3.35
2019-01-20T04:23:58.680Z,-3.23
2019-01-20T04:26:27.022Z,-3.24
2019-01-20T04:28:55.354Z,-3.04
2019-01-20T04:31:23.728Z,-3.07
2019-01-20T04:33:52.067Z,-3.11
2019-01-20T04:36:20.473Z,-3.06
2019-01-20T04:38:48.795Z,-3.28
2019-01-20T04:41:17.125Z,-3.30
2019-01-20T04:43:45.462Z,-3.28
2019-01-20T04:46:13.794Z,-3.36
2019-01-20T04:48:42.154Z,-3.42
2019-01-20T04:51:11.110Z,-3.27
2019-01-20T04:53:40.053Z,-3.31
2019-01-20T04:56:08.460Z,-3.22
2019-01-20T04:58:36.962Z,-3.40
2019-01-20T05:01:05.280Z,-3.35
2019-01-20T05:03:33.612Z,-3.34
2019-01-20T05:06:01.999Z,-3.35
2019-01-20T05:08:30.363Z,-3.30
2019-01-20T05:10:58.711Z,-3.14
2019-01-20T05:13:27.078Z,-3.25
2019-01-20T05:15:55.440Z,-3.40
2019-01-20T05:18:23.800Z,-3.31
2019-01-20T05:20:52.154Z,-3.58
2019-01-20T05:23:20.515Z,-3.51
2019-01-20T05:25:48.841Z,-3.60
2019-01-20T05:28:17.208Z,-3.59
2019-01-20T05:30:45.526Z,-3.42
2019-01-20T05:33:13.875Z,-3.51
2019-01-20T05:35:42.211Z,-3.76
2019-01-20T05:38:11.074Z,-3.77
2019-01-20T05:40:39.425Z,-3.68
2019-01-20T05:43:07.794Z,-3.59
2019-01-20T05:45:36.266Z,-3.46
2019-01-20T05:48:04.809Z,-3.45
2019-01-20T05:50:33.156Z,-3.66
2019-01-20T05:53:01.488Z,-3.77
2019-01-20T05:55:29.834Z,-3.69
2019-01-20T05:57:58.180Z,-3.62
2019-01-20T06:00:28.220Z,-3.61
2019-01-20T06:02:56.624Z,-3.65
2019-01-20T06:05:24.959Z,-3.71
2019-01-20T06:07:53.313Z,-3.68
2019-01-20T06:10:21.750Z,-3.96
2019-01-20T06:12:54.277Z,-3.87
2019-01-20T06:15:22.142Z,-3.87
2019-01-20T06:17:50.540Z,-3.92
2019-01-20T06:20:18.937Z,-4.02
2019-01-20T06:22:47.399Z,-3.94
2019-01-20T06:25:15.767Z,-3.98
2019-01-20T06:27:44.810Z,-3.88
2019-01-20T06:30:18.713Z,-3.77
2019-01-20T06:32:47.093Z,-3.67
2019-01-20T06:35:15.510Z,-3.74
2019-01-20T06:37:43.879Z,-3.79
2019-01-20T06:40:13.569Z,-3.79
2019-01-20T06:42:41.938Z,-3.76
2019-01-20T06:45:13.639Z,-3.91
2019-01-20T06:47:42.117Z,-4.15
2019-01-20T06:50:12.713Z,-4.00
2019-01-20T06:52:41.144Z,-4.16
2019-01-20T06:55:11.465Z,-4.04
2019-01-20T06:57:39.780Z,-4.03
2019-01-20T07:00:13.068Z,-3.94
2019-01-20T07:02:41.414Z,-4.00
2019-01-20T07:05:10.324Z,-4.02
2019-01-20T07:07:38.748Z,-4.24
2019-01-20T07:10:10.852Z,-4.42
2019-01-20T07:12:39.168Z,-4.15
2019-01-20T07:15:11.415Z,-4.13
2019-01-20T07:17:39.746Z,-4.19
2019-01-20T07:20:09.864Z,-4.21
2019-01-20T07:22:38.211Z,-4.13
2019-01-20T07:25:09.852Z,-4.04
2019-01-20T07:27:38.161Z,-4.00
2019-01-20T07:30:09.059Z,-3.77
2019-01-20T07:32:37.483Z,-3.51
2019-01-20T07:35:08.516Z,-3.44
2019-01-20T07:37:36.833Z,-3.36
2019-01-20T07:40:09.277Z,-3.04
2019-01-20T07:42:37.724Z,-3.21
2019-01-20T07:45:10.677Z,-3.17
2019-01-20T07:47:39.163Z,-2.99
2019-01-20T07:50:12.756Z,-3.22
2019-01-20T07:52:41.074Z,-3.42
2019-01-20T07:55:09.946Z,-3.50
2019-01-20T07:57:39.139Z,-3.58
2019-01-20T08:00:12.712Z,-3.51
2019-01-20T08:02:41.122Z,-3.23
2019-01-20T08:05:10.850Z,-3.18
2019-01-20T08:07:39.259Z,-2.27
2019-01-20T08:10:11.374Z,-2.15
2019-01-20T08:12:39.693Z,-1.58
2019-01-20T08:15:10.160Z,-1.37
2019-01-20T08:17:38.487Z,-0.53
2019-01-20T08:20:10.475Z,-1.06
2019-01-20T08:22:38.785Z,-1.94
2019-01-20T08:25:10.119Z,-2.41
2019-01-20T08:27:38.491Z,-2.42
2019-01-20T08:30:10.539Z,-2.61
2019-01-20T08:32:39.001Z,-2.06
2019-01-20T08:35:09.234Z,-1.88
2019-01-20T08:37:37.591Z,-2.06
2019-01-20T08:40:11.183Z,-2.08
2019-01-20T08:42:40.209Z,-1.48
2019-01-20T08:45:15.217Z,-1.77
2019-01-20T08:47:45.182Z,-1.91
2019-01-20T08:50:14.151Z,-1.91
2019-01-20T08:52:42.578Z,-2.20
2019-01-20T08:55:11.348Z,-2.63
2019-01-20T08:57:39.724Z,-1.94
2019-01-20T09:00:12.669Z,-1.73
2019-01-20T09:02:41.028Z,-1.87
2019-01-20T09:05:10.753Z,-2.35
2019-01-20T09:07:39.303Z,-2.58
2019-01-20T09:10:11.235Z,-2.15
2019-01-20T09:12:40.310Z,-1.78
2019-01-20T09:15:08.863Z,-2.15
2019-01-20T09:17:37.420Z,-1.47
2019-01-20T09:20:10.071Z,-0.75
2019-01-20T09:22:38.417Z,-1.53
2019-01-20T09:25:10.120Z,-1.86
2019-01-20T09:27:38.470Z,-1.94
2019-01-20T09:30:15.326Z,-1.89
2019-01-20T09:32:44.969Z,-1.60
2019-01-20T09:35:13.550Z,-1.50
2019-01-20T09:37:42.052Z,-1.61
2019-01-20T09:40:12.111Z,-1.84
2019-01-20T09:42:40.910Z,-1.82
2019-01-20T09:45:15.553Z,-1.85
2019-01-20T09:47:44.118Z,-1.77
2019-01-20T09:50:12.597Z,-1.72
2019-01-20T09:52:41.189Z,-1.83
2019-01-20T09:55:11.422Z,-1.70
2019-01-20T09:57:39.983Z,-1.83
2019-01-20T10:00:12.658Z,-2.00
2019-01-20T10:02:41.151Z,-2.00
2019-01-20T10:05:10.649Z,-2.05
2019-01-20T10:07:39.112Z,-1.94
2019-01-20T10:10:11.791Z,-1.51
2019-01-20T10:12:40.682Z,-1.35
2019-01-20T10:15:12.927Z,-1.26
2019-01-20T10:17:41.408Z,-1.26
2019-01-20T10:20:15.614Z,-1.12
2019-01-20T10:22:44.163Z,-1.09
2019-01-20T10:25:15.124Z,-1.27
2019-01-20T10:27:43.086Z,-1.24
2019-01-20T10:30:13.578Z,-0.97
2019-01-20T10:32:41.956Z,-1.35
2019-01-20T10:35:11.094Z,-1.33
2019-01-20T10:37:39.427Z,-1.34
2019-01-20T10:40:08.575Z,-1.52
2019-01-20T10:42:36.979Z,-1.44
2019-01-20T10:45:09.576Z,-1.47
2019-01-20T10:47:37.951Z,-1.37
2019-01-20T10:50:11.005Z,-1.22
2019-01-20T10:52:39.387Z,-1.22
2019-01-20T10:55:08.629Z,-0.91
2019-01-20T10:57:37.285Z,-0.76
2019-01-20T11:00:11.293Z,-0.57
2019-01-20T11:02:39.705Z,-0.85
2019-01-20T11:05:09.862Z,-0.52
2019-01-20T11:07:38.267Z,-0.76
2019-01-20T11:10:10.438Z,-1.03
2019-01-20T11:12:38.870Z,-1.04
2019-01-20T11:15:11.226Z,-0.97
2019-01-20T11:17:39.593Z,-0.93
2019-01-20T11:20:11.510Z,-1.05
2019-01-20T11:22:39.914Z,-1.05
2019-01-20T11:25:10.266Z,-0.97
2019-01-20T11:27:38.581Z,-0.90
2019-01-20T11:30:10.302Z,-0.77
2019-01-20T11:32:42.431Z,-0.77
2019-01-20T11:35:14.840Z,-0.69
2019-01-20T11:37:43.459Z,-0.65
2019-01-20T11:40:13.430Z,-0.72
2019-01-20T11:42:41.990Z,-0.62
2019-01-20T11:45:17.698Z,-0.54
2019-01-20T11:47:46.116Z,-0.37
2019-01-20T11:50:15.280Z,-0.61
2019-01-20T11:52:43.786Z,-0.45
2019-01-20T11:55:15.671Z,-0.36
2019-01-20T11:57:44.066Z,-0.46
2019-01-20T12:00:15.885Z,-0.41
2019-01-20T12:02:44.373Z,-0.31
2019-01-20T12:05:13.461Z,-0.28
2019-01-20T12:07:41.874Z,-0.25
2019-01-20T12:10:11.223Z,0.07
2019-01-20T12:12:40.378Z,0.01
2019-01-20T12:15:11.968Z,-0.04
2019-01-20T12:17:40.456Z,-0.05
2019-01-20T12:20:11.168Z,-0.34
2019-01-20T12:22:39.567Z,-0.23
2019-01-20T12:25:13.503Z,0.09
2019-01-20T12:27:41.853Z,-0.28
2019-01-20T12:30:14.506Z,-0.35
2019-01-20T12:32:42.930Z,-0.09
2019-01-20T12:35:11.625Z,0.18
2019-01-20T12:37:39.972Z,0.06
2019-01-20T12:40:12.811Z,0.17
2019-01-20T12:42:41.138Z,0.29
2019-01-20T12:45:10.030Z,0.40
2019-01-20T12:47:38.461Z,0.41
2019-01-20T12:50:10.120Z,0.41
2019-01-20T12:52:38.427Z,0.33
2019-01-20T12:55:07.855Z,0.37
2019-01-20T12:57:36.531Z,0.49
2019-01-20T13:00:09.862Z,0.42
2019-01-20T13:02:38.456Z,0.55
2019-01-20T13:05:07.617Z,0.62
2019-01-20T13:07:36.134Z,0.49
2019-01-20T13:10:08.408Z,0.44
2019-01-20T13:12:36.881Z,0.69
2019-01-20T13:15:09.034Z,0.66
2019-01-20T13:17:37.442Z,0.69
2019-01-20T13:20:09.925Z,0.70
2019-01-20T13:22:38.330Z,0.74
2019-01-20T13:25:08.721Z,0.69
2019-01-20T13:27:37.138Z,0.78
2019-01-20T13:30:08.385Z,0.63
2019-01-20T13:32:36.727Z,0.56
2019-01-20T13:35:08.660Z,0.84
2019-01-20T13:37:40.317Z,0.92
2019-01-20T13:40:16.038Z,0.62
2019-01-20T13:42:44.430Z,0.48
2019-01-20T13:45:13.309Z,0.80
2019-01-20T13:47:48.501Z,0.77
2019-01-20T13:50:15.868Z,0.55
2019-01-20T13:52:44.315Z,0.84
2019-01-20T13:55:14.268Z,0.95
2019-01-20T13:57:42.676Z,1.02
2019-01-20T14:00:14.518Z,1.18
2019-01-20T14:02:42.941Z,0.83
2019-01-20T14:05:11.393Z,0.81
2019-01-20T14:07:39.754Z,1.00
2019-01-20T14:10:12.457Z,1.14
2019-01-20T14:12:40.892Z,0.98
2019-01-20T14:15:11.864Z,0.95
2019-01-20T14:17:40.209Z,0.96
2019-01-20T14:20:12.066Z,1.16
2019-01-20T14:22:40.412Z,1.15
2019-01-20T14:25:10.611Z,1.10
2019-01-20T14:27:39.496Z,0.82
2019-01-20T14:30:11.399Z,0.91
2019-01-20T14:32:39.778Z,0.73
2019-01-20T14:35:09.412Z,1.04
2019-01-20T14:37:37.782Z,1.07
2019-01-20T14:40:10.308Z,1.06
2019-01-20T14:42:38.658Z,1.15
2019-01-20T14:45:10.168Z,1.22
2019-01-20T14:47:38.498Z,1.29
2019-01-20T14:50:09.679Z,1.28
2019-01-20T14:52:38.023Z,1.22
2019-01-20T14:55:09.341Z,1.40
2019-01-20T14:57:37.892Z,1.64
2019-01-20T15:00:21.330Z,1.70
2019-01-20T15:02:49.773Z,1.53
2019-01-20T15:05:18.279Z,1.10
2019-01-20T15:07:46.686Z,1.22
2019-01-20T15:10:15.985Z,1.20
2019-01-20T15:12:44.382Z,1.22
2019-01-20T15:15:17.185Z,1.27
2019-01-20T15:17:45.645Z,1.28
2019-01-20T15:20:14.665Z,1.36
2019-01-20T15:22:43.068Z,1.10
2019-01-20T15:25:14.153Z,0.88
2019-01-20T15:27:42.622Z,0.85
2019-01-20T15:30:16.093Z,0.91
2019-01-20T15:32:44.527Z,0.99
2019-01-20T15:35:13.042Z,0.89
2019-01-20T15:37:41.383Z,0.91
2019-01-20T15:40:13.974Z,0.61
2019-01-20T15:42:43.080Z,0.74
2019-01-20T15:45:16.494Z,0.55
2019-01-20T15:47:44.864Z,0.57
2019-01-20T15:50:16.777Z,0.47
2019-01-20T15:52:45.211Z,0.22
2019-01-20T15:55:13.909Z,0.14
2019-01-20T15:57:42.212Z,0.24
2019-01-20T16:00:15.700Z,0.28
2019-01-20T16:02:44.094Z,0.28
2019-01-20T16:05:12.554Z,0.17
2019-01-20T16:07:40.915Z,0.13
2019-01-20T16:10:12.015Z,0.16
2019-01-20T16:12:40.518Z,0.18
2019-01-20T16:15:13.653Z,0.24
2019-01-20T16:17:42.369Z,0.07
2019-01-20T16:20:14.902Z,0.04
2019-01-20T16:22:43.372Z,0.04
2019-01-20T16:25:15.802Z,-0.13
2019-01-20T16:27:44.200Z,-0.17
2019-01-20T16:30:16.363Z,-0.15
2019-01-20T16:32:44.714Z,-0.22
2019-01-20T16:35:13.512Z,-0.26
2019-01-20T16:37:41.907Z,-0.39
2019-01-20T16:40:14.795Z,-0.50
2019-01-20T16:42:43.142Z,-0.52
2019-01-20T16:45:15.218Z,-0.44
2019-01-20T16:47:43.677Z,-0.44
2019-01-20T16:50:16.523Z,-0.44
2019-01-20T16:52:45.237Z,-0.41
2019-01-20T16:55:14.982Z,-0.36
2019-01-20T16:58:09.516Z,-0.53
2019-01-20T17:00:39.994Z,-0.48
2019-01-20T17:03:08.409Z,-0.33
2019-01-20T17:05:37.017Z,-0.46
2019-01-20T17:08:05.581Z,-0.50
2019-01-20T17:10:36.362Z,-0.35
2019-01-20T17:13:05.130Z,-0.34
2019-01-20T17:15:39.873Z,-0.38
2019-01-20T17:18:08.137Z,-0.41
2019-01-20T17:20:36.537Z,-0.32
2019-01-20T17:23:04.964Z,-0.42
2019-01-20T17:25:33.370Z,-0.40
2019-01-20T17:28:01.777Z,-0.38
2019-01-20T17:30:34.017Z,-0.31
2019-01-20T17:33:02.747Z,-0.25
2019-01-20T17:35:31.097Z,-0.31
2019-01-20T17:37:59.566Z,-0.46
2019-01-20T17:40:28.862Z,-0.50
2019-01-20T17:42:57.290Z,-0.52
2019-01-20T17:45:27.538Z,-0.54
2019-01-20T17:47:55.953Z,-0.54
2019-01-20T17:50:27.133Z,-0.67
2019-01-20T17:52:55.587Z,-0.88
2019-01-20T17:55:24.009Z,-0.93
2019-01-20T17:57:52.433Z,-1.01
2019-01-20T18:00:24.260Z,-0.90
2019-01-20T18:02:52.710Z,-0.95
2019-01-20T18:05:24.597Z,-0.92
2019-01-20T18:07:53.091Z,-0.92
2019-01-20T18:10:21.591Z,-0.90
2019-01-20T18:12:50.002Z,-0.96
2019-01-20T18:15:21.199Z,-0.94
2019-01-20T18:17:49.631Z,-0.96
2019-01-20T18:20:20.310Z,-0.96
2019-01-20T18:22:48.747Z,-0.93
2019-01-20T18:25:18.294Z,-1.01
2019-01-20T18:27:46.678Z,-1.05
2019-01-20T18:30:16.761Z,-1.08
2019-01-20T18:32:45.171Z,-0.98
2019-01-20T18:35:14.557Z,-1.06
2019-01-20T18:37:43.812Z,-1.05
2019-01-20T18:40:14.910Z,-0.98
2019-01-20T18:42:43.521Z,-1.02
2019-01-20T18:45:14.549Z,-1.09
2019-01-20T18:47:43.607Z,-1.14
2019-01-20T18:50:15.408Z,-1.06
2019-01-20T18:52:43.841Z,-1.07
2019-01-20T18:55:15.095Z,-1.21
2019-01-20T18:57:44.867Z,-1.20
2019-01-20T19:00:16.954Z,-1.15
2019-01-20T19:02:45.298Z,-1.09
2019-01-20T19:05:17.193Z,-1.18
2019-01-20T19:07:45.709Z,-1.13
2019-01-20T19:10:15.713Z,-1.24
2019-01-20T19:12:44.181Z,-1.27
2019-01-20T19:15:16.076Z,-1.23
2019-01-20T19:17:44.479Z,-1.24
2019-01-20T19:20:14.363Z,-1.06
2019-01-20T19:22:42.751Z,-1.18
2019-01-20T19:25:13.137Z,-0.98
2019-01-20T19:27:41.514Z,-1.00
2019-01-20T19:30:14.807Z,-1.15
2019-01-20T19:32:43.144Z,-1.17
2019-01-20T19:35:12.359Z,-1.00
2019-01-20T19:37:40.686Z,-1.04
2019-01-20T19:40:12.228Z,-0.97
2019-01-20T19:42:40.786Z,-1.06
2019-01-20T19:45:12.367Z,-1.24
2019-01-20T19:47:40.756Z,-1.28
2019-01-20T19:50:11.739Z,-1.25
2019-01-20T19:52:40.328Z,-1.38
2019-01-20T19:55:11.630Z,-1.44
2019-01-20T19:57:40.095Z,-1.46
2019-01-20T20:00:12.788Z,-1.58
2019-01-20T20:02:41.228Z,-1.35
2019-01-20T20:05:13.451Z,-1.15
2019-01-20T20:07:41.873Z,-1.35
2019-01-20T20:10:15.010Z,-1.42
2019-01-20T20:12:43.365Z,-1.51
2019-01-20T20:15:15.630Z,-1.42
2019-01-20T20:17:44.000Z,-1.25
2019-01-20T20:20:15.465Z,-1.22
2019-01-20T20:22:43.888Z,-1.40
2019-01-20T20:25:14.850Z,-1.60
2019-01-20T20:27:43.470Z,-1.62
2019-01-20T20:30:15.027Z,-1.65
2019-01-20T20:32:43.542Z,-1.70
2019-01-20T20:35:13.114Z,-1.74
2019-01-20T20:37:41.573Z,-1.87
2019-01-20T20:40:12.957Z,-1.80
2019-01-20T20:42:41.394Z,-1.84
2019-01-20T20:45:11.753Z,-1.78
2019-01-20T20:47:40.160Z,-1.61
2019-01-20T20:50:11.863Z,-1.53
2019-01-20T20:52:45.909Z,-1.74
2019-01-20T20:55:11.296Z,-1.93
2019-01-20T20:57:39.633Z,-1.96
2019-01-20T21:00:12.988Z,-1.83
2019-01-20T21:02:41.394Z,-1.72
2019-01-20T21:05:10.049Z,-1.92
2019-01-20T21:07:38.457Z,-1.96
2019-01-20T21:10:12.621Z,-1.98
2019-01-20T21:12:40.956Z,-1.80
2019-01-20T21:15:12.359Z,-1.83
2019-01-20T21:17:47.919Z,-1.86
2019-01-20T21:20:13.843Z,-1.89
2019-01-20T21:22:42.178Z,-1.89
2019-01-20T21:25:11.931Z,-1.76
2019-01-20T21:27:40.338Z,-1.70
2019-01-20T21:30:17.708Z,-1.61
2019-01-20T21:32:46.037Z,-1.78
2019-01-20T21:35:15.716Z,-2.12
2019-01-20T21:37:44.083Z,-2.21
2019-01-20T21:40:15.499Z,-2.31
2019-01-20T21:42:43.925Z,-2.38
2019-01-20T21:45:14.533Z,-2.38
2019-01-20T21:47:42.962Z,-2.35
2019-01-20T21:50:18.180Z,-2.16
2019-01-20T21:52:46.755Z,-2.09
2019-01-20T21:55:15.464Z,-2.19
2019-01-20T21:57:43.943Z,-2.18
2019-01-20T22:00:16.327Z,-2.07
2019-01-20T22:02:44.859Z,-1.86
2019-01-20T22:05:13.915Z,-1.98
2019-01-20T22:07:42.518Z,-2.12
2019-01-20T22:10:14.082Z,-2.11
2019-01-20T22:12:42.611Z,-2.22
2019-01-20T22:15:12.027Z,-2.49
2019-01-20T22:17:40.537Z,-2.36
2019-01-20T22:20:12.608Z,-2.41
2019-01-20T22:22:41.377Z,-2.17
2019-01-20T22:25:10.750Z,-2.09
2019-01-20T22:27:39.357Z,-2.07
2019-01-20T22:30:11.185Z,-2.12
2019-01-20T22:32:39.556Z,-2.13
2019-01-20T22:35:10.925Z,-2.25
2019-01-20T22:37:39.434Z,-2.49
2019-01-20T22:40:09.806Z,-2.52
2019-01-20T22:42:38.337Z,-2.51
2019-01-20T22:45:11.348Z,-2.41
2019-01-20T22:47:39.663Z,-2.50
2019-01-20T22:50:12.514Z,-2.61
2019-01-20T22:52:41.171Z,-2.56
2019-01-20T22:55:11.673Z,-2.58
2019-01-20T22:57:41.285Z,-2.55
2019-01-20T23:00:13.214Z,-2.64
2019-01-20T23:02:42.322Z,-2.76
2019-01-20T23:05:11.305Z,-2.75
2019-01-20T23:07:40.145Z,-2.81
2019-01-20T23:10:08.946Z,-2.91
2019-01-20T23:12:38.410Z,-2.85
2019-01-20T23:15:09.831Z,-2.88
2019-01-20T23:17:38.137Z,-2.86
2019-01-20T23:20:11.943Z,-2.83
2019-01-20T23:22:41.434Z,-2.76
2019-01-20T23:25:10.457Z,-2.74
2019-01-20T23:27:38.838Z,-2.87
2019-01-20T23:30:11.428Z,-2.76
2019-01-20T23:32:40.270Z,-2.78
2019-01-20T23:35:08.782Z,-2.84
2019-01-20T23:37:37.182Z,-2.86
2019-01-20T23:40:10.177Z,-2.85
2019-01-20T23:42:38.521Z,-2.89
2019-01-20T23:45:10.144Z,-3.00
2019-01-20T23:47:38.619Z,-3.05
2019-01-20T23:50:09.424Z,-2.90
2019-01-20T23:52:37.867Z,-2.84
2019-01-20T23:55:07.770Z,-2.90
2019-01-20T23:57:36.130Z,-3.13
